Terminal Aerodrome Forecast
Issued by NWS North Platte, NE

Home | Current Version | Previous Version | Text Only | Print | Product List | Glossary Off
Versions: 1 2 3 4 5 6 7 8 9 10 11 12 13

711
FTUS43 KLBF 031122
TAFVTN
TAF
KVTN 031122Z 0312/0412 20007KT P6SM BKN080
     FM031600 20010KT P6SM SCT080
     FM032000 23011G17KT P6SM SCT200
     FM032300 25008KT P6SM SCT250
     FM040400 25006KT P6SM BKN100
     FM040900 29008KT P6SM SCT250=

USA.gov is the U.S. government's official web portal to all federal, state and local government web resources and services.